sensor_id;sensor_type;location;lat;lon;timestamp;P1;durP1;ratioP1;P2;durP2;ratioP2
54929;SDS011;40833;53.238;6.576;2022-07-19T00:01:59;7.43;;;4.93;;
54929;SDS011;40833;53.238;6.576;2022-07-19T00:04:25;8.13;;;5.72;;
54929;SDS011;40833;53.238;6.576;2022-07-19T00:06:50;9.70;;;5.10;;
54929;SDS011;40833;53.238;6.576;2022-07-19T00:09:16;9.00;;;4.95;;
54929;SDS011;40833;53.238;6.576;2022-07-19T00:11:42;9.13;;;5.53;;
54929;SDS011;40833;53.238;6.576;2022-07-19T00:14:07;7.60;;;4.90;;
54929;SDS011;40833;53.238;6.576;2022-07-19T00:16:33;8.68;;;5.78;;
54929;SDS011;40833;53.238;6.576;2022-07-19T00:18:59;11.80;;;5.35;;
54929;SDS011;40833;53.238;6.576;2022-07-19T00:21:25;9.32;;;5.00;;
54929;SDS011;40833;53.238;6.576;2022-07-19T00:23:50;5.25;;;4.18;;
54929;SDS011;40833;53.238;6.576;2022-07-19T00:26:16;9.90;;;5.28;;
54929;SDS011;40833;53.238;6.576;2022-07-19T00:28:42;10.20;;;4.93;;
54929;SDS011;40833;53.238;6.576;2022-07-19T00:31:07;8.63;;;5.60;;
54929;SDS011;40833;53.238;6.576;2022-07-19T00:33:33;9.10;;;5.05;;
54929;SDS011;40833;53.238;6.576;2022-07-19T00:36:00;8.57;;;5.63;;
54929;SDS011;40833;53.238;6.576;2022-07-19T00:38:25;9.23;;;4.95;;
54929;SDS011;40833;53.238;6.576;2022-07-19T00:40:51;6.07;;;5.13;;
54929;SDS011;40833;53.238;6.576;2022-07-19T00:43:17;10.25;;;5.47;;
54929;SDS011;40833;53.238;6.576;2022-07-19T00:45:43;8.63;;;5.18;;
54929;SDS011;40833;53.238;6.576;2022-07-19T00:48:08;9.75;;;5.38;;
54929;SDS011;40833;53.238;6.576;2022-07-19T00:50:34;9.02;;;5.43;;
54929;SDS011;40833;53.238;6.576;2022-07-19T00:53:00;7.60;;;5.72;;
54929;SDS011;40833;53.238;6.576;2022-07-19T00:55:30;8.35;;;5.57;;
54929;SDS011;40833;53.238;6.576;2022-07-19T00:57:58;9.30;;;4.80;;
54929;SDS011;40833;53.238;6.576;2022-07-19T01:00:25;9.65;;;5.35;;
54929;SDS011;40833;53.238;6.576;2022-07-19T01:02:53;10.90;;;6.15;;
54929;SDS011;40833;53.238;6.576;2022-07-19T01:05:19;9.02;;;5.40;;
54929;SDS011;40833;53.238;6.576;2022-07-19T01:07:45;8.02;;;5.40;;
54929;SDS011;40833;53.238;6.576;2022-07-19T01:10:12;7.72;;;5.32;;
54929;SDS011;40833;53.238;6.576;2022-07-19T01:12:40;12.93;;;5.53;;
54929;SDS011;40833;53.238;6.576;2022-07-19T01:15:13;7.32;;;4.93;;
54929;SDS011;40833;53.238;6.576;2022-07-19T01:17:41;7.25;;;5.32;;
54929;SDS011;40833;53.238;6.576;2022-07-19T01:20:07;8.35;;;5.20;;
54929;SDS011;40833;53.238;6.576;2022-07-19T01:22:33;7.88;;;5.28;;
54929;SDS011;40833;53.238;6.576;2022-07-19T01:24:59;7.18;;;4.50;;
54929;SDS011;40833;53.238;6.576;2022-07-19T01:27:25;11.90;;;4.95;;
54929;SDS011;40833;53.238;6.576;2022-07-19T01:29:51;10.30;;;5.65;;
54929;SDS011;40833;53.238;6.576;2022-07-19T01:32:16;10.60;;;5.47;;
54929;SDS011;40833;53.238;6.576;2022-07-19T01:34:42;10.50;;;5.55;;
54929;SDS011;40833;53.238;6.576;2022-07-19T01:37:08;8.73;;;5.15;;
54929;SDS011;40833;53.238;6.576;2022-07-19T01:39:33;10.57;;;5.60;;
54929;SDS011;40833;53.238;6.576;2022-07-19T01:41:59;7.70;;;5.63;;
54929;SDS011;40833;53.238;6.576;2022-07-19T01:44:25;11.73;;;5.90;;
54929;SDS011;40833;53.238;6.576;2022-07-19T01:46:50;8.70;;;5.45;;
54929;SDS011;40833;53.238;6.576;2022-07-19T01:49:16;8.13;;;4.93;;
54929;SDS011;40833;53.238;6.576;2022-07-19T01:51:44;5.38;;;4.72;;
54929;SDS011;40833;53.238;6.576;2022-07-19T01:54:10;8.20;;;5.05;;
54929;SDS011;40833;53.238;6.576;2022-07-19T01:56:36;6.50;;;5.20;;
54929;SDS011;40833;53.238;6.576;2022-07-19T01:59:01;10.95;;;4.88;;
54929;SDS011;40833;53.238;6.576;2022-07-19T02:01:27;11.80;;;4.85;;
54929;SDS011;40833;53.238;6.576;2022-07-19T02:03:53;6.15;;;4.93;;
54929;SDS011;40833;53.238;6.576;2022-07-19T02:06:19;5.75;;;4.47;;
54929;SDS011;40833;53.238;6.576;2022-07-19T02:08:44;7.03;;;5.03;;
54929;SDS011;40833;53.238;6.576;2022-07-19T02:11:10;6.07;;;4.93;;
54929;SDS011;40833;53.238;6.576;2022-07-19T02:13:55;9.13;;;4.70;;
54929;SDS011;40833;53.238;6.576;2022-07-19T02:16:20;9.13;;;5.00;;
54929;SDS011;40833;53.238;6.576;2022-07-19T02:18:46;6.22;;;4.88;;
54929;SDS011;40833;53.238;6.576;2022-07-19T02:21:12;6.88;;;4.75;;
54929;SDS011;40833;53.238;6.576;2022-07-19T02:23:38;7.80;;;4.68;;
54929;SDS011;40833;53.238;6.576;2022-07-19T02:26:03;8.40;;;5.18;;
54929;SDS011;40833;53.238;6.576;2022-07-19T02:28:29;8.70;;;5.50;;
54929;SDS011;40833;53.238;6.576;2022-07-19T02:30:55;7.95;;;5.07;;
54929;SDS011;40833;53.238;6.576;2022-07-19T02:33:20;9.63;;;5.68;;
54929;SDS011;40833;53.238;6.576;2022-07-19T02:35:46;8.18;;;5.40;;
54929;SDS011;40833;53.238;6.576;2022-07-19T02:38:12;10.07;;;5.35;;
54929;SDS011;40833;53.238;6.576;2022-07-19T02:40:38;7.78;;;5.20;;
54929;SDS011;40833;53.238;6.576;2022-07-19T02:43:03;11.02;;;5.28;;
54929;SDS011;40833;53.238;6.576;2022-07-19T02:45:29;15.25;;;6.07;;
54929;SDS011;40833;53.238;6.576;2022-07-19T02:47:55;7.65;;;5.25;;
54929;SDS011;40833;53.238;6.576;2022-07-19T02:50:20;7.35;;;5.60;;
54929;SDS011;40833;53.238;6.576;2022-07-19T02:52:46;8.50;;;5.15;;
54929;SDS011;40833;53.238;6.576;2022-07-19T02:55:12;9.40;;;6.22;;
54929;SDS011;40833;53.238;6.576;2022-07-19T02:57:37;8.48;;;5.38;;
54929;SDS011;40833;53.238;6.576;2022-07-19T03:00:05;8.68;;;5.25;;
54929;SDS011;40833;53.238;6.576;2022-07-19T03:02:34;8.65;;;5.55;;
54929;SDS011;40833;53.238;6.576;2022-07-19T03:05:00;10.07;;;5.57;;
54929;SDS011;40833;53.238;6.576;2022-07-19T03:07:25;6.40;;;5.50;;
54929;SDS011;40833;53.238;6.576;2022-07-19T03:09:52;10.13;;;5.97;;
54929;SDS011;40833;53.238;6.576;2022-07-19T03:12:17;8.82;;;5.78;;
54929;SDS011;40833;53.238;6.576;2022-07-19T03:14:43;8.63;;;5.75;;
54929;SDS011;40833;53.238;6.576;2022-07-19T03:17:09;9.57;;;5.50;;
54929;SDS011;40833;53.238;6.576;2022-07-19T03:19:35;10.35;;;5.57;;
54929;SDS011;40833;53.238;6.576;2022-07-19T03:22:00;7.55;;;5.28;;
54929;SDS011;40833;53.238;6.576;2022-07-19T03:24:26;10.30;;;5.22;;
54929;SDS011;40833;53.238;6.576;2022-07-19T03:26:52;7.47;;;5.60;;
54929;SDS011;40833;53.238;6.576;2022-07-19T03:29:20;8.52;;;5.43;;
54929;SDS011;40833;53.238;6.576;2022-07-19T03:31:46;10.13;;;5.88;;
54929;SDS011;40833;53.238;6.576;2022-07-19T03:34:12;9.30;;;5.68;;
54929;SDS011;40833;53.238;6.576;2022-07-19T03:36:37;7.45;;;5.40;;
54929;SDS011;40833;53.238;6.576;2022-07-19T03:39:03;7.78;;;5.15;;
54929;SDS011;40833;53.238;6.576;2022-07-19T03:41:29;7.75;;;5.78;;
54929;SDS011;40833;53.238;6.576;2022-07-19T03:43:55;7.22;;;5.43;;
54929;SDS011;40833;53.238;6.576;2022-07-19T03:46:21;7.22;;;5.55;;
54929;SDS011;40833;53.238;6.576;2022-07-19T03:48:47;8.32;;;5.65;;
54929;SDS011;40833;53.238;6.576;2022-07-19T03:51:14;10.60;;;5.60;;
54929;SDS011;40833;53.238;6.576;2022-07-19T03:53:39;6.60;;;4.97;;
54929;SDS011;40833;53.238;6.576;2022-07-19T03:56:05;9.82;;;5.65;;
54929;SDS011;40833;53.238;6.576;2022-07-19T03:58:31;8.82;;;5.22;;
54929;SDS011;40833;53.238;6.576;2022-07-19T04:00:57;10.18;;;5.63;;
54929;SDS011;40833;53.238;6.576;2022-07-19T04:03:23;10.70;;;5.32;;
54929;SDS011;40833;53.238;6.576;2022-07-19T04:05:49;6.68;;;4.90;;
54929;SDS011;40833;53.238;6.576;2022-07-19T04:08:14;10.93;;;5.72;;
54929;SDS011;40833;53.238;6.576;2022-07-19T04:10:40;10.65;;;5.47;;
54929;SDS011;40833;53.238;6.576;2022-07-19T04:13:09;9.15;;;4.90;;
54929;SDS011;40833;53.238;6.576;2022-07-19T04:15:35;8.38;;;5.35;;
54929;SDS011;40833;53.238;6.576;2022-07-19T04:18:01;10.43;;;6.18;;
54929;SDS011;40833;53.238;6.576;2022-07-19T04:20:26;9.52;;;6.30;;
54929;SDS011;40833;53.238;6.576;2022-07-19T04:22:52;10.15;;;6.57;;
54929;SDS011;40833;53.238;6.576;2022-07-19T04:25:18;7.95;;;5.90;;
54929;SDS011;40833;53.238;6.576;2022-07-19T04:27:44;8.02;;;5.70;;
54929;SDS011;40833;53.238;6.576;2022-07-19T04:30:10;13.30;;;6.53;;
54929;SDS011;40833;53.238;6.576;2022-07-19T04:32:36;7.72;;;5.70;;
54929;SDS011;40833;53.238;6.576;2022-07-19T04:35:02;11.20;;;6.60;;
54929;SDS011;40833;53.238;6.576;2022-07-19T04:37:28;9.77;;;6.32;;
54929;SDS011;40833;53.238;6.576;2022-07-19T04:39:53;9.25;;;6.43;;
54929;SDS011;40833;53.238;6.576;2022-07-19T04:42:19;10.10;;;6.63;;
54929;SDS011;40833;53.238;6.576;2022-07-19T04:44:45;7.85;;;6.85;;
54929;SDS011;40833;53.238;6.576;2022-07-19T04:47:10;9.32;;;5.93;;
54929;SDS011;40833;53.238;6.576;2022-07-19T04:49:36;10.02;;;7.05;;
54929;SDS011;40833;53.238;6.576;2022-07-19T04:52:02;11.40;;;7.00;;
54929;SDS011;40833;53.238;6.576;2022-07-19T04:54:31;13.30;;;6.78;;
54929;SDS011;40833;53.238;6.576;2022-07-19T04:56:56;11.40;;;6.75;;
54929;SDS011;40833;53.238;6.576;2022-07-19T04:59:22;10.25;;;6.70;;
54929;SDS011;40833;53.238;6.576;2022-07-19T05:01:48;7.82;;;6.43;;
54929;SDS011;40833;53.238;6.576;2022-07-19T05:04:13;8.52;;;6.18;;
54929;SDS011;40833;53.238;6.576;2022-07-19T05:06:39;13.82;;;7.28;;
54929;SDS011;40833;53.238;6.576;2022-07-19T05:09:05;9.48;;;6.97;;
54929;SDS011;40833;53.238;6.576;2022-07-19T05:11:33;16.05;;;6.75;;
54929;SDS011;40833;53.238;6.576;2022-07-19T05:13:59;11.63;;;6.35;;
54929;SDS011;40833;53.238;6.576;2022-07-19T05:16:25;12.68;;;6.63;;
54929;SDS011;40833;53.238;6.576;2022-07-19T05:18:51;16.02;;;5.95;;
54929;SDS011;40833;53.238;6.576;2022-07-19T05:21:16;8.50;;;5.60;;
54929;SDS011;40833;53.238;6.576;2022-07-19T05:23:42;12.10;;;6.13;;
54929;SDS011;40833;53.238;6.576;2022-07-19T05:26:08;12.95;;;6.22;;
54929;SDS011;40833;53.238;6.576;2022-07-19T05:28:34;13.57;;;6.18;;
54929;SDS011;40833;53.238;6.576;2022-07-19T05:30:59;12.25;;;6.53;;
54929;SDS011;40833;53.238;6.576;2022-07-19T05:33:26;11.70;;;6.10;;
54929;SDS011;40833;53.238;6.576;2022-07-19T05:35:53;18.83;;;5.47;;
54929;SDS011;40833;53.238;6.576;2022-07-19T05:38:22;16.92;;;6.13;;
54929;SDS011;40833;53.238;6.576;2022-07-19T05:40:48;18.38;;;6.53;;
54929;SDS011;40833;53.238;6.576;2022-07-19T05:43:14;20.75;;;5.65;;
54929;SDS011;40833;53.238;6.576;2022-07-19T05:45:40;13.63;;;6.25;;
54929;SDS011;40833;53.238;6.576;2022-07-19T05:48:06;11.48;;;6.18;;
54929;SDS011;40833;53.238;6.576;2022-07-19T05:50:31;18.88;;;5.20;;
54929;SDS011;40833;53.238;6.576;2022-07-19T05:52:57;12.35;;;6.15;;
54929;SDS011;40833;53.238;6.576;2022-07-19T05:55:23;12.88;;;5.90;;
54929;SDS011;40833;53.238;6.576;2022-07-19T05:57:49;13.75;;;5.93;;
54929;SDS011;40833;53.238;6.576;2022-07-19T06:00:14;16.17;;;6.10;;
54929;SDS011;40833;53.238;6.576;2022-07-19T06:02:40;9.88;;;5.40;;
54929;SDS011;40833;53.238;6.576;2022-07-19T06:05:06;12.32;;;5.85;;
54929;SDS011;40833;53.238;6.576;2022-07-19T06:07:33;14.73;;;6.18;;
54929;SDS011;40833;53.238;6.576;2022-07-19T06:09:58;11.93;;;5.50;;
54929;SDS011;40833;53.238;6.576;2022-07-19T06:12:24;10.10;;;5.72;;
54929;SDS011;40833;53.238;6.576;2022-07-19T06:14:50;14.40;;;5.40;;
54929;SDS011;40833;53.238;6.576;2022-07-19T06:17:15;17.23;;;4.93;;
54929;SDS011;40833;53.238;6.576;2022-07-19T06:19:41;12.32;;;4.78;;
54929;SDS011;40833;53.238;6.576;2022-07-19T06:22:07;11.55;;;5.35;;
54929;SDS011;40833;53.238;6.576;2022-07-19T06:24:32;14.00;;;4.90;;
54929;SDS011;40833;53.238;6.576;2022-07-19T06:26:58;11.85;;;4.28;;
54929;SDS011;40833;53.238;6.576;2022-07-19T06:29:24;8.73;;;4.35;;
54929;SDS011;40833;53.238;6.576;2022-07-19T06:31:49;12.95;;;4.63;;
54929;SDS011;40833;53.238;6.576;2022-07-19T06:34:15;11.93;;;4.60;;
54929;SDS011;40833;53.238;6.576;2022-07-19T06:36:41;12.20;;;4.82;;
54929;SDS011;40833;53.238;6.576;2022-07-19T06:39:07;14.48;;;4.40;;
54929;SDS011;40833;53.238;6.576;2022-07-19T06:41:32;15.20;;;4.50;;
54929;SDS011;40833;53.238;6.576;2022-07-19T06:43:58;13.20;;;4.90;;
54929;SDS011;40833;53.238;6.576;2022-07-19T06:46:24;13.50;;;4.55;;
54929;SDS011;40833;53.238;6.576;2022-07-19T06:48:52;7.68;;;4.75;;
54929;SDS011;40833;53.238;6.576;2022-07-19T06:51:17;6.43;;;4.22;;
54929;SDS011;40833;53.238;6.576;2022-07-19T06:53:43;12.45;;;4.47;;
54929;SDS011;40833;53.238;6.576;2022-07-19T06:56:09;9.98;;;4.45;;
54929;SDS011;40833;53.238;6.576;2022-07-19T06:58:35;11.05;;;4.10;;
54929;SDS011;40833;53.238;6.576;2022-07-19T07:01:01;12.73;;;4.68;;
54929;SDS011;40833;53.238;6.576;2022-07-19T07:03:28;10.32;;;5.03;;
54929;SDS011;40833;53.238;6.576;2022-07-19T07:05:54;10.77;;;4.38;;
54929;SDS011;40833;53.238;6.576;2022-07-19T07:08:19;10.80;;;4.63;;
54929;SDS011;40833;53.238;6.576;2022-07-19T07:10:45;7.63;;;3.63;;
54929;SDS011;40833;53.238;6.576;2022-07-19T07:13:11;9.52;;;4.32;;
54929;SDS011;40833;53.238;6.576;2022-07-19T07:15:37;9.07;;;3.88;;
54929;SDS011;40833;53.238;6.576;2022-07-19T07:18:03;7.22;;;3.72;;
54929;SDS011;40833;53.238;6.576;2022-07-19T07:20:29;10.50;;;3.45;;
54929;SDS011;40833;53.238;6.576;2022-07-19T07:22:55;8.23;;;4.20;;
54929;SDS011;40833;53.238;6.576;2022-07-19T07:25:21;9.05;;;3.75;;
54929;SDS011;40833;53.238;6.576;2022-07-19T07:27:49;13.15;;;3.85;;
54929;SDS011;40833;53.238;6.576;2022-07-19T07:30:15;8.57;;;3.80;;
54929;SDS011;40833;53.238;6.576;2022-07-19T07:32:40;18.77;;;4.43;;
54929;SDS011;40833;53.238;6.576;2022-07-19T07:35:06;8.73;;;4.15;;
54929;SDS011;40833;53.238;6.576;2022-07-19T07:37:32;8.15;;;3.92;;
54929;SDS011;40833;53.238;6.576;2022-07-19T07:39:58;8.57;;;3.50;;
54929;SDS011;40833;53.238;6.576;2022-07-19T07:42:24;9.07;;;3.70;;
54929;SDS011;40833;53.238;6.576;2022-07-19T07:44:50;7.85;;;3.60;;
54929;SDS011;40833;53.238;6.576;2022-07-19T07:47:16;6.65;;;3.35;;
54929;SDS011;40833;53.238;6.576;2022-07-19T07:49:42;11.43;;;3.53;;
54929;SDS011;40833;53.238;6.576;2022-07-19T07:52:08;5.88;;;3.53;;
54929;SDS011;40833;53.238;6.576;2022-07-19T07:54:34;8.35;;;3.50;;
54929;SDS011;40833;53.238;6.576;2022-07-19T07:57:00;10.15;;;3.80;;
54929;SDS011;40833;53.238;6.576;2022-07-19T07:59:25;8.18;;;3.17;;
54929;SDS011;40833;53.238;6.576;2022-07-19T08:01:51;5.68;;;3.42;;
54929;SDS011;40833;53.238;6.576;2022-07-19T08:04:17;5.88;;;3.65;;
54929;SDS011;40833;53.238;6.576;2022-07-19T08:06:42;9.82;;;3.85;;
54929;SDS011;40833;53.238;6.576;2022-07-19T08:09:08;7.30;;;3.17;;
54929;SDS011;40833;53.238;6.576;2022-07-19T08:11:34;7.65;;;3.08;;
54929;SDS011;40833;53.238;6.576;2022-07-19T08:14:00;8.32;;;2.97;;
54929;SDS011;40833;53.238;6.576;2022-07-19T08:16:27;8.75;;;2.60;;
54929;SDS011;40833;53.238;6.576;2022-07-19T08:18:53;4.68;;;3.05;;
54929;SDS011;40833;53.238;6.576;2022-07-19T08:21:18;5.93;;;3.42;;
54929;SDS011;40833;53.238;6.576;2022-07-19T08:23:44;4.88;;;3.13;;
54929;SDS011;40833;53.238;6.576;2022-07-19T08:26:09;8.10;;;2.92;;
54929;SDS011;40833;53.238;6.576;2022-07-19T08:28:35;6.35;;;2.67;;
54929;SDS011;40833;53.238;6.576;2022-07-19T08:31:01;8.98;;;2.67;;
54929;SDS011;40833;53.238;6.576;2022-07-19T08:33:27;11.93;;;2.80;;
54929;SDS011;40833;53.238;6.576;2022-07-19T08:35:52;7.93;;;3.03;;
54929;SDS011;40833;53.238;6.576;2022-07-19T08:38:18;7.53;;;3.08;;
54929;SDS011;40833;53.238;6.576;2022-07-19T08:40:44;11.90;;;2.90;;
54929;SDS011;40833;53.238;6.576;2022-07-19T08:43:13;6.00;;;2.78;;
54929;SDS011;40833;53.238;6.576;2022-07-19T08:45:39;7.38;;;2.60;;
54929;SDS011;40833;53.238;6.576;2022-07-19T08:48:06;5.13;;;3.13;;
54929;SDS011;40833;53.238;6.576;2022-07-19T08:50:33;7.55;;;2.53;;
54929;SDS011;40833;53.238;6.576;2022-07-19T08:52:59;7.82;;;2.35;;
54929;SDS011;40833;53.238;6.576;2022-07-19T08:55:26;10.25;;;2.50;;
54929;SDS011;40833;53.238;6.576;2022-07-19T08:57:55;7.68;;;2.13;;
54929;SDS011;40833;53.238;6.576;2022-07-19T09:00:26;7.40;;;2.28;;
54929;SDS011;40833;53.238;6.576;2022-07-19T09:02:57;11.45;;;2.55;;
54929;SDS011;40833;53.238;6.576;2022-07-19T09:05:25;7.35;;;2.22;;
54929;SDS011;40833;53.238;6.576;2022-07-19T09:08:02;6.60;;;2.20;;
54929;SDS011;40833;53.238;6.576;2022-07-19T09:10:36;6.25;;;1.83;;
54929;SDS011;40833;53.238;6.576;2022-07-19T09:13:05;18.52;;;2.60;;
54929;SDS011;40833;53.238;6.576;2022-07-19T09:15:42;6.95;;;2.15;;
54929;SDS011;40833;53.238;6.576;2022-07-19T09:18:11;7.38;;;2.00;;
54929;SDS011;40833;53.238;6.576;2022-07-19T09:20:39;4.93;;;1.98;;
54929;SDS011;40833;53.238;6.576;2022-07-19T09:23:06;5.05;;;1.77;;
54929;SDS011;40833;53.238;6.576;2022-07-19T09:45:12;8.38;;;1.60;;
54929;SDS011;40833;53.238;6.576;2022-07-19T09:47:43;5.50;;;1.80;;
54929;SDS011;40833;53.238;6.576;2022-07-19T15:30:58;4.30;;;0.50;;
54929;SDS011;40833;53.238;6.576;2022-07-19T17:45:42;6.80;;;1.00;;
54929;SDS011;40833;53.238;6.576;2022-07-19T17:48:08;6.43;;;1.13;;
54929;SDS011;40833;53.238;6.576;2022-07-19T17:50:34;8.05;;;1.20;;
54929;SDS011;40833;53.238;6.576;2022-07-19T20:15:00;10.10;;;2.17;;
54929;SDS011;40833;53.238;6.576;2022-07-19T20:28:54;3.97;;;2.20;;
54929;SDS011;40833;53.238;6.576;2022-07-19T20:45:27;6.47;;;2.20;;
54929;SDS011;40833;53.238;6.576;2022-07-19T21:12:06;4.13;;;2.20;;
54929;SDS011;40833;53.238;6.576;2022-07-19T21:30:48;7.65;;;2.53;;
54929;SDS011;40833;53.238;6.576;2022-07-19T21:33:14;4.68;;;1.77;;
54929;SDS011;40833;53.238;6.576;2022-07-19T21:47:59;5.57;;;2.05;;
54929;SDS011;40833;53.238;6.576;2022-07-19T21:50:25;5.15;;;2.22;;
54929;SDS011;40833;53.238;6.576;2022-07-19T22:02:22;7.38;;;1.98;;
54929;SDS011;40833;53.238;6.576;2022-07-19T22:04:52;2.78;;;2.10;;
54929;SDS011;40833;53.238;6.576;2022-07-19T22:07:19;2.78;;;2.00;;
54929;SDS011;40833;53.238;6.576;2022-07-19T22:09:44;6.55;;;1.88;;
54929;SDS011;40833;53.238;6.576;2022-07-19T22:12:10;9.60;;;2.35;;
54929;SDS011;40833;53.238;6.576;2022-07-19T22:23:28;5.07;;;3.03;;
54929;SDS011;40833;53.238;6.576;2022-07-19T22:25:55;5.97;;;2.50;;
54929;SDS011;40833;53.238;6.576;2022-07-19T22:28:20;3.70;;;2.22;;
54929;SDS011;40833;53.238;6.576;2022-07-19T22:30:46;2.38;;;2.00;;
54929;SDS011;40833;53.238;6.576;2022-07-19T22:33:12;4.82;;;2.10;;
54929;SDS011;40833;53.238;6.576;2022-07-19T22:35:38;6.65;;;2.30;;
54929;SDS011;40833;53.238;6.576;2022-07-19T22:38:04;3.47;;;1.77;;
54929;SDS011;40833;53.238;6.576;2022-07-19T22:40:29;5.22;;;2.58;;
54929;SDS011;40833;53.238;6.576;2022-07-19T22:42:55;4.30;;;2.03;;
54929;SDS011;40833;53.238;6.576;2022-07-19T22:45:24;7.80;;;2.20;;
54929;SDS011;40833;53.238;6.576;2022-07-19T22:47:50;8.18;;;2.10;;
54929;SDS011;40833;53.238;6.576;2022-07-19T22:50:17;5.72;;;1.92;;
54929;SDS011;40833;53.238;6.576;2022-07-19T22:52:42;5.28;;;2.13;;
54929;SDS011;40833;53.238;6.576;2022-07-19T22:55:08;7.43;;;1.98;;
54929;SDS011;40833;53.238;6.576;2022-07-19T22:57:34;5.20;;;1.92;;
54929;SDS011;40833;53.238;6.576;2022-07-19T23:00:00;6.28;;;1.73;;
54929;SDS011;40833;53.238;6.576;2022-07-19T23:02:26;3.20;;;1.80;;
54929;SDS011;40833;53.238;6.576;2022-07-19T23:04:51;3.28;;;1.65;;
54929;SDS011;40833;53.238;6.576;2022-07-19T23:07:17;9.32;;;2.10;;
54929;SDS011;40833;53.238;6.576;2022-07-19T23:09:43;5.22;;;1.90;;
54929;SDS011;40833;53.238;6.576;2022-07-19T23:12:08;5.57;;;1.90;;
54929;SDS011;40833;53.238;6.576;2022-07-19T23:14:35;6.75;;;2.00;;
54929;SDS011;40833;53.238;6.576;2022-07-19T23:17:01;4.07;;;1.80;;
54929;SDS011;40833;53.238;6.576;2022-07-19T23:19:26;4.55;;;2.05;;
54929;SDS011;40833;53.238;6.576;2022-07-19T23:21:52;7.05;;;1.90;;
54929;SDS011;40833;53.238;6.576;2022-07-19T23:24:18;5.15;;;2.08;;
54929;SDS011;40833;53.238;6.576;2022-07-19T23:26:43;4.50;;;2.17;;
54929;SDS011;40833;53.238;6.576;2022-07-19T23:29:09;7.72;;;1.90;;
54929;SDS011;40833;53.238;6.576;2022-07-19T23:31:35;7.07;;;2.00;;
54929;SDS011;40833;53.238;6.576;2022-07-19T23:34:00;7.95;;;1.77;;
54929;SDS011;40833;53.238;6.576;2022-07-19T23:36:26;6.75;;;2.42;;
54929;SDS011;40833;53.238;6.576;2022-07-19T23:38:52;9.65;;;2.15;;
54929;SDS011;40833;53.238;6.576;2022-07-19T23:41:18;8.68;;;2.22;;
54929;SDS011;40833;53.238;6.576;2022-07-19T23:43:44;1.85;;;1.60;;
54929;SDS011;40833;53.238;6.576;2022-07-19T23:46:09;4.05;;;1.80;;
54929;SDS011;40833;53.238;6.576;2022-07-19T23:48:40;4.95;;;2.15;;
54929;SDS011;40833;53.238;6.576;2022-07-19T23:51:06;7.63;;;2.08;;
54929;SDS011;40833;53.238;6.576;2022-07-19T23:53:33;6.18;;;2.15;;
54929;SDS011;40833;53.238;6.576;2022-07-19T23:55:59;9.15;;;2.53;;
54929;SDS011;40833;53.238;6.576;2022-07-19T23:58:28;7.03;;;2.10;;
